Overview Statistics Trail Chart Weather Telemetry Raw packets
 

This is the latest recevied weather packets stored in our database for station/object OE3APM-13. If no packets are shown the sender has not sent any weather packets the latest 10 day(s).

<< 13 14 15 16 17 18 19 >>
Time Temp. Humidity Pressure Rain* Wind** Luminosity Snow
1788520479 26.67° C 49% 1018 hPa 0 mm - 671 W/m² -
1788520178 26.67° C 52% 1018.1 hPa 0 mm - 765 W/m² -
1788519878 26.11° C 50% 1018.4 hPa 0 mm - 519 W/m² -
1788519578 26.67° C 49% 1018.2 hPa 0 mm - 626 W/m² -
1788519277 26.11° C 49% 1018.5 hPa 0 mm - 786 W/m² -
1788518977 26.11° C 49% 1018.4 hPa 0 mm - 752 W/m² -
1788518677 26.11° C 50% 1018.5 hPa 0 mm - 612 W/m² -
1788518376 26.11° C 49% 1018.6 hPa 0 mm - 686 W/m² -
1788518075 26.11° C 52% 1018.7 hPa 0 mm - 668 W/m² -
1788517775 26.11° C 51% 1018.6 hPa 0 mm - 237 W/m² -
1788517475 26.11° C 50% 1018.7 hPa 0 mm - 682 W/m² -
1788517175 26.11° C 52% 1018.7 hPa 0 mm - 812 W/m² -
1788516874 26.11° C 50% 1018.9 hPa 0 mm - 652 W/m² -
1788516574 26.11° C 49% 1019.1 hPa 0 mm - 190 W/m² -
1788516272 26.11° C 51% 1019.1 hPa 0 mm - 575 W/m² -
1788515971 26.11° C 52% 1019.2 hPa 0 mm - 719 W/m² -
1788515671 26.11° C 51% 1019.2 hPa 0 mm - 782 W/m² -
1788515370 25.56° C 52% 1019.4 hPa 0 mm - 796 W/m² -
1788515070 26.11° C 52% 1019.4 hPa 0 mm - 533 W/m² -
1788514770 26.11° C 52% 1019.6 hPa 0 mm - 798 W/m² -
1788514470 25.56° C 52% 1019.6 hPa 0 mm - 793 W/m² -
1788514171 25.56° C 53% 1019.7 hPa 0 mm - 765 W/m² -
1788513870 25.56° C 52% 1019.8 hPa 0 mm - 536 W/m² -
1788513570 25.56° C 53% 1019.8 hPa 0 mm - 529 W/m² -
1788513271 25° C 55% 1019.9 hPa 0 mm - 652 W/m² -

* Rain latest hour (hover to see other rain measurements)
** Current wind speed in m/s (hover to see current wind gust speed)